sensor_id;sensor_type;location;lat;lon;timestamp;noise_LAeq;noise_LA_min;noise_LA_max;noise_LA01;noise_LA95
74292;Laerm;62687;55.738;37.516;2022-12-05T00:00:38;63.53;53.23;71.37;;
74292;Laerm;62687;55.738;37.516;2022-12-05T00:03:22;65.29;53.96;72.88;;
74292;Laerm;62687;55.738;37.516;2022-12-05T00:06:06;65.36;55.09;72.11;;
74292;Laerm;62687;55.738;37.516;2022-12-05T00:08:51;65.51;55.62;72.80;;
74292;Laerm;62687;55.738;37.516;2022-12-05T00:11:37;64.84;55.87;72.68;;
74292;Laerm;62687;55.738;37.516;2022-12-05T00:14:22;64.06;54.31;72.39;;
74292;Laerm;62687;55.738;37.516;2022-12-05T00:17:06;65.00;54.11;73.04;;
74292;Laerm;62687;55.738;37.516;2022-12-05T00:19:50;63.68;53.76;70.46;;
74292;Laerm;62687;55.738;37.516;2022-12-05T00:22:36;64.50;53.87;71.88;;
74292;Laerm;62687;55.738;37.516;2022-12-05T00:25:21;63.96;52.23;70.85;;
74292;Laerm;62687;55.738;37.516;2022-12-05T00:28:06;66.50;58.28;76.77;;
74292;Laerm;62687;55.738;37.516;2022-12-05T00:30:50;64.07;53.15;72.63;;
74292;Laerm;62687;55.738;37.516;2022-12-05T00:33:34;65.10;53.95;72.76;;
74292;Laerm;62687;55.738;37.516;2022-12-05T00:36:28;64.53;54.18;73.42;;
74292;Laerm;62687;55.738;37.516;2022-12-05T00:39:13;65.59;54.89;75.72;;
74292;Laerm;62687;55.738;37.516;2022-12-05T00:41:58;63.76;53.16;70.74;;
74292;Laerm;62687;55.738;37.516;2022-12-05T00:44:42;63.74;52.91;75.29;;
74292;Laerm;62687;55.738;37.516;2022-12-05T00:47:26;64.81;56.18;77.56;;
74292;Laerm;62687;55.738;37.516;2022-12-05T00:50:10;64.88;52.77;73.87;;
74292;Laerm;62687;55.738;37.516;2022-12-05T00:52:54;64.35;52.76;77.92;;
74292;Laerm;62687;55.738;37.516;2022-12-05T00:55:38;63.74;53.56;70.57;;
74292;Laerm;62687;55.738;37.516;2022-12-05T00:58:22;63.84;55.12;72.64;;
74292;Laerm;62687;55.738;37.516;2022-12-05T01:01:08;63.90;53.84;71.65;;
74292;Laerm;62687;55.738;37.516;2022-12-05T01:03:55;65.03;55.04;75.01;;
74292;Laerm;62687;55.738;37.516;2022-12-05T01:06:40;63.86;54.81;73.73;;
74292;Laerm;62687;55.738;37.516;2022-12-05T01:09:24;63.97;54.31;72.60;;
74292;Laerm;62687;55.738;37.516;2022-12-05T01:12:08;64.72;56.24;71.44;;
74292;Laerm;62687;55.738;37.516;2022-12-05T01:14:53;64.66;52.44;73.16;;
74292;Laerm;62687;55.738;37.516;2022-12-05T01:17:37;63.75;54.62;71.01;;
74292;Laerm;62687;55.738;37.516;2022-12-05T01:20:21;64.48;54.59;70.90;;
74292;Laerm;62687;55.738;37.516;2022-12-05T01:23:05;65.76;54.83;77.41;;
74292;Laerm;62687;55.738;37.516;2022-12-05T01:25:51;65.60;56.77;74.09;;
74292;Laerm;62687;55.738;37.516;2022-12-05T01:28:36;63.86;53.24;72.19;;
74292;Laerm;62687;55.738;37.516;2022-12-05T01:31:24;64.12;54.51;72.05;;
74292;Laerm;62687;55.738;37.516;2022-12-05T01:34:14;65.03;52.50;74.36;;
74292;Laerm;62687;55.738;37.516;2022-12-05T01:36:58;64.87;54.15;72.63;;
74292;Laerm;62687;55.738;37.516;2022-12-05T01:39:42;65.39;57.11;72.75;;
74292;Laerm;62687;55.738;37.516;2022-12-05T01:42:26;66.44;56.20;73.88;;
74292;Laerm;62687;55.738;37.516;2022-12-05T01:45:16;65.72;58.27;72.95;;
74292;Laerm;62687;55.738;37.516;2022-12-05T01:48:04;66.94;57.10;77.75;;
74292;Laerm;62687;55.738;37.516;2022-12-05T01:50:50;67.05;57.17;76.90;;
74292;Laerm;62687;55.738;37.516;2022-12-05T01:53:35;65.04;54.82;71.90;;
74292;Laerm;62687;55.738;37.516;2022-12-05T01:56:19;65.74;54.34;75.21;;
74292;Laerm;62687;55.738;37.516;2022-12-05T01:59:05;66.99;58.66;75.92;;
74292;Laerm;62687;55.738;37.516;2022-12-05T02:01:50;65.51;54.12;72.48;;
74292;Laerm;62687;55.738;37.516;2022-12-05T02:04:42;65.52;56.84;70.66;;
74292;Laerm;62687;55.738;37.516;2022-12-05T02:07:30;66.21;57.35;73.43;;
74292;Laerm;62687;55.738;37.516;2022-12-05T02:10:15;66.94;58.56;76.02;;
74292;Laerm;62687;55.738;37.516;2022-12-05T02:16:12;66.57;57.00;74.31;;
74292;Laerm;62687;55.738;37.516;2022-12-05T02:20:03;67.40;57.99;73.21;;
74292;Laerm;62687;55.738;37.516;2022-12-05T02:25:59;66.89;57.67;82.34;;
74292;Laerm;62687;55.738;37.516;2022-12-05T02:43:48;69.24;62.13;85.52;;
74292;Laerm;62687;55.738;37.516;2022-12-05T02:46:37;67.26;60.77;73.16;;
74292;Laerm;62687;55.738;37.516;2022-12-05T02:49:26;68.11;60.61;75.42;;
74292;Laerm;62687;55.738;37.516;2022-12-05T02:52:14;68.09;57.13;74.56;;
74292;Laerm;62687;55.738;37.516;2022-12-05T02:55:00;69.04;62.48;75.97;;
74292;Laerm;62687;55.738;37.516;2022-12-05T02:57:51;69.29;60.61;83.12;;
74292;Laerm;62687;55.738;37.516;2022-12-05T03:00:38;68.67;63.00;74.46;;
74292;Laerm;62687;55.738;37.516;2022-12-05T03:03:24;69.33;62.10;75.23;;
74292;Laerm;62687;55.738;37.516;2022-12-05T03:06:15;69.94;62.35;81.13;;
74292;Laerm;62687;55.738;37.516;2022-12-05T03:09:08;69.11;61.50;74.98;;
74292;Laerm;62687;55.738;37.516;2022-12-05T03:12:00;69.33;62.99;80.98;;
74292;Laerm;62687;55.738;37.516;2022-12-05T03:14:57;69.99;62.14;76.22;;
74292;Laerm;62687;55.738;37.516;2022-12-05T03:17:52;70.74;63.78;82.57;;
74292;Laerm;62687;55.738;37.516;2022-12-05T03:24:07;70.64;64.06;75.49;;
74292;Laerm;62687;55.738;37.516;2022-12-05T03:27:03;70.66;64.91;75.11;;
74292;Laerm;62687;55.738;37.516;2022-12-05T03:38:32;71.30;66.13;75.97;;
74292;Laerm;62687;55.738;37.516;2022-12-05T03:41:38;71.73;66.20;84.27;;
74292;Laerm;62687;55.738;37.516;2022-12-05T03:47:29;71.51;66.81;75.22;;
74292;Laerm;62687;55.738;37.516;2022-12-05T03:50:24;71.55;66.13;76.25;;
74292;Laerm;62687;55.738;37.516;2022-12-05T03:53:14;71.59;65.26;76.82;;
74292;Laerm;62687;55.738;37.516;2022-12-05T03:56:24;72.19;67.32;77.35;;
74292;Laerm;62687;55.738;37.516;2022-12-05T03:59:17;71.72;67.39;76.37;;
74292;Laerm;62687;55.738;37.516;2022-12-05T04:02:11;71.74;67.17;75.60;;
74292;Laerm;62687;55.738;37.516;2022-12-05T04:07:44;72.15;66.58;75.64;;
74292;Laerm;62687;55.738;37.516;2022-12-05T04:10:32;71.90;67.89;76.93;;
74292;Laerm;62687;55.738;37.516;2022-12-05T04:13:38;72.14;67.10;76.61;;
74292;Laerm;62687;55.738;37.516;2022-12-05T04:16:46;72.47;67.44;77.07;;
74292;Laerm;62687;55.738;37.516;2022-12-05T04:23:10;71.95;67.05;78.52;;
74292;Laerm;62687;55.738;37.516;2022-12-05T04:25:59;72.15;67.81;76.66;;
74292;Laerm;62687;55.738;37.516;2022-12-05T04:28:51;72.59;67.79;78.08;;
74292;Laerm;62687;55.738;37.516;2022-12-05T04:31:42;72.05;67.04;76.02;;
74292;Laerm;62687;55.738;37.516;2022-12-05T04:34:27;72.25;67.26;76.44;;
74292;Laerm;62687;55.738;37.516;2022-12-05T04:37:15;72.30;68.01;76.27;;
74292;Laerm;62687;55.738;37.516;2022-12-05T04:40:13;72.52;67.16;77.49;;
74292;Laerm;62687;55.738;37.516;2022-12-05T04:43:01;72.18;67.02;77.75;;
74292;Laerm;62687;55.738;37.516;2022-12-05T04:45:46;72.10;67.26;76.88;;
74292;Laerm;62687;55.738;37.516;2022-12-05T04:48:35;72.11;68.16;76.06;;
74292;Laerm;62687;55.738;37.516;2022-12-05T04:51:23;73.08;67.47;86.02;;
74292;Laerm;62687;55.738;37.516;2022-12-05T04:54:17;72.58;67.59;76.63;;
74292;Laerm;62687;55.738;37.516;2022-12-05T05:00:28;72.33;68.68;77.23;;
74292;Laerm;62687;55.738;37.516;2022-12-05T05:03:29;72.52;68.04;84.73;;
74292;Laerm;62687;55.738;37.516;2022-12-05T05:06:15;72.22;68.22;76.80;;
74292;Laerm;62687;55.738;37.516;2022-12-05T05:09:00;72.50;68.88;76.61;;
74292;Laerm;62687;55.738;37.516;2022-12-05T05:11:44;72.50;67.65;76.88;;
74292;Laerm;62687;55.738;37.516;2022-12-05T05:14:28;72.10;67.80;75.81;;
74292;Laerm;62687;55.738;37.516;2022-12-05T05:17:12;72.22;67.22;76.59;;
74292;Laerm;62687;55.738;37.516;2022-12-05T05:19:56;72.98;67.66;77.51;;
74292;Laerm;62687;55.738;37.516;2022-12-05T05:23:00;72.42;67.81;77.49;;
74292;Laerm;62687;55.738;37.516;2022-12-05T05:25:44;72.63;68.17;76.45;;
74292;Laerm;62687;55.738;37.516;2022-12-05T05:28:28;73.27;68.92;81.40;;
74292;Laerm;62687;55.738;37.516;2022-12-05T05:31:13;72.90;68.68;78.80;;
74292;Laerm;62687;55.738;37.516;2022-12-05T05:33:58;73.52;68.88;86.87;;
74292;Laerm;62687;55.738;37.516;2022-12-05T05:36:42;73.40;69.06;82.71;;
74292;Laerm;62687;55.738;37.516;2022-12-05T05:39:27;72.77;68.61;86.75;;
74292;Laerm;62687;55.738;37.516;2022-12-05T05:42:12;73.58;68.39;87.88;;
74292;Laerm;62687;55.738;37.516;2022-12-05T05:44:56;72.98;69.18;76.37;;
74292;Laerm;62687;55.738;37.516;2022-12-05T05:47:41;73.11;68.90;76.83;;
74292;Laerm;62687;55.738;37.516;2022-12-05T05:50:25;73.10;69.12;77.81;;
74292;Laerm;62687;55.738;37.516;2022-12-05T05:53:09;73.61;69.47;83.93;;
74292;Laerm;62687;55.738;37.516;2022-12-05T05:55:54;72.72;68.31;77.04;;
74292;Laerm;62687;55.738;37.516;2022-12-05T05:58:38;73.61;68.54;80.16;;
74292;Laerm;62687;55.738;37.516;2022-12-05T06:01:22;73.42;69.13;77.62;;
74292;Laerm;62687;55.738;37.516;2022-12-05T06:04:07;73.15;69.62;77.39;;
74292;Laerm;62687;55.738;37.516;2022-12-05T06:06:51;73.25;68.97;77.55;;
74292;Laerm;62687;55.738;37.516;2022-12-05T06:09:35;73.16;68.14;77.26;;
74292;Laerm;62687;55.738;37.516;2022-12-05T06:12:19;73.11;68.90;76.96;;
74292;Laerm;62687;55.738;37.516;2022-12-05T06:15:04;73.55;70.00;76.92;;
74292;Laerm;62687;55.738;37.516;2022-12-05T06:17:49;73.58;68.96;78.90;;
74292;Laerm;62687;55.738;37.516;2022-12-05T06:20:33;73.96;70.21;84.06;;
74292;Laerm;62687;55.738;37.516;2022-12-05T06:23:17;73.98;69.26;84.54;;
74292;Laerm;62687;55.738;37.516;2022-12-05T06:26:03;73.39;69.25;81.42;;
74292;Laerm;62687;55.738;37.516;2022-12-05T06:28:47;73.72;69.72;84.38;;
74292;Laerm;62687;55.738;37.516;2022-12-05T06:31:31;73.53;69.54;77.46;;
74292;Laerm;62687;55.738;37.516;2022-12-05T06:34:16;73.47;69.16;77.20;;
74292;Laerm;62687;55.738;37.516;2022-12-05T06:37:00;73.59;68.60;77.52;;
74292;Laerm;62687;55.738;37.516;2022-12-05T06:39:45;74.53;68.64;93.35;;
74292;Laerm;62687;55.738;37.516;2022-12-05T06:42:30;73.51;68.46;78.33;;
74292;Laerm;62687;55.738;37.516;2022-12-05T06:45:14;73.62;69.24;79.40;;
74292;Laerm;62687;55.738;37.516;2022-12-05T06:47:58;73.56;69.26;78.60;;
74292;Laerm;62687;55.738;37.516;2022-12-05T06:50:52;73.80;69.21;84.42;;
74292;Laerm;62687;55.738;37.516;2022-12-05T06:53:37;73.22;68.88;78.00;;
74292;Laerm;62687;55.738;37.516;2022-12-05T06:56:21;74.72;69.27;94.13;;
74292;Laerm;62687;55.738;37.516;2022-12-05T06:59:05;73.16;68.60;77.71;;
74292;Laerm;62687;55.738;37.516;2022-12-05T07:01:49;73.46;68.91;81.35;;
74292;Laerm;62687;55.738;37.516;2022-12-05T07:04:33;73.09;68.97;82.43;;
74292;Laerm;62687;55.738;37.516;2022-12-05T07:07:18;72.73;68.02;82.96;;
74292;Laerm;62687;55.738;37.516;2022-12-05T07:10:03;73.00;68.48;77.08;;
74292;Laerm;62687;55.738;37.516;2022-12-05T07:12:47;73.35;67.84;77.70;;
74292;Laerm;62687;55.738;37.516;2022-12-05T07:15:31;73.91;69.99;90.16;;
74292;Laerm;62687;55.738;37.516;2022-12-05T07:18:16;73.52;69.14;84.46;;
74292;Laerm;62687;55.738;37.516;2022-12-05T07:21:04;73.09;68.93;77.84;;
74292;Laerm;62687;55.738;37.516;2022-12-05T07:23:49;73.09;67.74;86.48;;
74292;Laerm;62687;55.738;37.516;2022-12-05T07:26:33;72.60;67.63;76.66;;
74292;Laerm;62687;55.738;37.516;2022-12-05T07:29:18;72.08;67.12;77.12;;
74292;Laerm;62687;55.738;37.516;2022-12-05T07:32:03;73.77;70.16;77.72;;
74292;Laerm;62687;55.738;37.516;2022-12-05T07:34:47;72.80;68.90;76.53;;
74292;Laerm;62687;55.738;37.516;2022-12-05T07:37:31;73.02;67.80;77.33;;
74292;Laerm;62687;55.738;37.516;2022-12-05T07:40:15;72.90;67.95;76.57;;
74292;Laerm;62687;55.738;37.516;2022-12-05T07:42:59;73.53;68.01;86.79;;
74292;Laerm;62687;55.738;37.516;2022-12-05T07:45:43;72.41;66.96;77.13;;
74292;Laerm;62687;55.738;37.516;2022-12-05T07:48:27;72.41;67.33;77.10;;
74292;Laerm;62687;55.738;37.516;2022-12-05T07:51:11;73.16;68.96;78.68;;
74292;Laerm;62687;55.738;37.516;2022-12-05T07:53:58;72.83;68.06;76.68;;
74292;Laerm;62687;55.738;37.516;2022-12-05T07:56:42;72.83;68.57;76.62;;
74292;Laerm;62687;55.738;37.516;2022-12-05T07:59:26;72.81;68.69;76.76;;
74292;Laerm;62687;55.738;37.516;2022-12-05T08:02:10;73.01;68.42;76.82;;
74292;Laerm;62687;55.738;37.516;2022-12-05T08:04:53;72.72;68.71;77.30;;
74292;Laerm;62687;55.738;37.516;2022-12-05T08:07:37;72.51;66.27;79.50;;
74292;Laerm;62687;55.738;37.516;2022-12-05T08:10:21;72.80;68.05;79.67;;
74292;Laerm;62687;55.738;37.516;2022-12-05T08:13:05;72.95;69.00;76.99;;
74292;Laerm;62687;55.738;37.516;2022-12-05T08:15:51;73.00;69.18;76.99;;
74292;Laerm;62687;55.738;37.516;2022-12-05T08:18:35;72.71;68.06;76.65;;
74292;Laerm;62687;55.738;37.516;2022-12-05T08:21:19;72.85;68.76;76.97;;
74292;Laerm;62687;55.738;37.516;2022-12-05T08:24:04;72.17;67.60;81.28;;
74292;Laerm;62687;55.738;37.516;2022-12-05T08:26:49;72.70;68.15;85.36;;
74292;Laerm;62687;55.738;37.516;2022-12-05T08:29:33;71.96;67.70;77.16;;
74292;Laerm;62687;55.738;37.516;2022-12-05T08:32:17;71.69;66.38;75.94;;
74292;Laerm;62687;55.738;37.516;2022-12-05T08:35:01;71.48;67.10;75.79;;
74292;Laerm;62687;55.738;37.516;2022-12-05T08:37:46;71.78;66.52;76.37;;
74292;Laerm;62687;55.738;37.516;2022-12-05T08:40:30;71.61;66.11;81.87;;
74292;Laerm;62687;55.738;37.516;2022-12-05T08:43:14;71.42;67.03;75.74;;
74292;Laerm;62687;55.738;37.516;2022-12-05T08:45:59;72.68;65.84;94.73;;
74292;Laerm;62687;55.738;37.516;2022-12-05T08:48:43;71.25;66.56;83.99;;
74292;Laerm;62687;55.738;37.516;2022-12-05T08:51:27;72.74;68.48;85.48;;
74292;Laerm;62687;55.738;37.516;2022-12-05T08:54:11;72.17;67.74;76.02;;
74292;Laerm;62687;55.738;37.516;2022-12-05T08:56:55;72.59;68.20;76.95;;
74292;Laerm;62687;55.738;37.516;2022-12-05T08:59:39;72.18;67.95;76.51;;
74292;Laerm;62687;55.738;37.516;2022-12-05T09:02:23;72.96;68.62;78.79;;
74292;Laerm;62687;55.738;37.516;2022-12-05T09:05:08;73.01;68.40;79.04;;
74292;Laerm;62687;55.738;37.516;2022-12-05T09:07:52;72.76;68.68;77.52;;
74292;Laerm;62687;55.738;37.516;2022-12-05T09:10:37;72.92;67.95;77.33;;
74292;Laerm;62687;55.738;37.516;2022-12-05T09:13:21;72.79;69.17;76.68;;
74292;Laerm;62687;55.738;37.516;2022-12-05T09:16:14;72.96;68.06;76.49;;
74292;Laerm;62687;55.738;37.516;2022-12-05T09:18:59;73.06;68.85;76.87;;
74292;Laerm;62687;55.738;37.516;2022-12-05T09:21:44;73.21;67.71;76.80;;
74292;Laerm;62687;55.738;37.516;2022-12-05T09:24:28;72.61;67.40;77.54;;
74292;Laerm;62687;55.738;37.516;2022-12-05T09:27:12;73.18;69.77;79.41;;
74292;Laerm;62687;55.738;37.516;2022-12-05T09:29:56;73.07;68.18;77.61;;
74292;Laerm;62687;55.738;37.516;2022-12-05T09:32:40;72.82;68.85;78.51;;
74292;Laerm;62687;55.738;37.516;2022-12-05T09:35:24;72.41;68.41;76.32;;
74292;Laerm;62687;55.738;37.516;2022-12-05T09:38:08;72.60;68.28;76.20;;
74292;Laerm;62687;55.738;37.516;2022-12-05T09:43:59;73.20;69.02;77.38;;
74292;Laerm;62687;55.738;37.516;2022-12-05T09:46:59;72.28;68.56;75.71;;
74292;Laerm;62687;55.738;37.516;2022-12-05T09:58:53;72.97;68.04;80.54;;
74292;Laerm;62687;55.738;37.516;2022-12-05T10:05:07;72.80;69.18;82.84;;
74292;Laerm;62687;55.738;37.516;2022-12-05T10:08:23;72.38;68.87;82.35;;
74292;Laerm;62687;55.738;37.516;2022-12-05T10:11:17;73.05;68.62;79.97;;
74292;Laerm;62687;55.738;37.516;2022-12-05T10:14:11;73.23;68.23;79.21;;
74292;Laerm;62687;55.738;37.516;2022-12-05T10:17:07;73.27;68.50;84.88;;
74292;Laerm;62687;55.738;37.516;2022-12-05T10:19:59;73.09;68.90;80.12;;
74292;Laerm;62687;55.738;37.516;2022-12-05T10:23:01;73.05;68.39;82.02;;
74292;Laerm;62687;55.738;37.516;2022-12-05T10:25:51;72.98;66.73;78.85;;
74292;Laerm;62687;55.738;37.516;2022-12-05T10:31:29;73.08;68.77;77.65;;
74292;Laerm;62687;55.738;37.516;2022-12-05T10:34:22;73.26;68.26;94.54;;
74292;Laerm;62687;55.738;37.516;2022-12-05T10:37:21;72.97;69.00;77.25;;
74292;Laerm;62687;55.738;37.516;2022-12-05T10:40:11;73.57;69.03;84.25;;
74292;Laerm;62687;55.738;37.516;2022-12-05T10:42:55;73.08;69.24;86.56;;
74292;Laerm;62687;55.738;37.516;2022-12-05T10:45:43;73.09;68.61;86.77;;
74292;Laerm;62687;55.738;37.516;2022-12-05T10:48:28;73.05;68.93;77.36;;
74292;Laerm;62687;55.738;37.516;2022-12-05T10:51:21;72.80;68.56;76.13;;
74292;Laerm;62687;55.738;37.516;2022-12-05T10:54:24;72.98;68.33;77.77;;
74292;Laerm;62687;55.738;37.516;2022-12-05T10:57:25;72.85;68.37;77.20;;
74292;Laerm;62687;55.738;37.516;2022-12-05T11:00:13;73.15;68.65;77.79;;
74292;Laerm;62687;55.738;37.516;2022-12-05T11:02:59;72.92;68.28;77.23;;
74292;Laerm;62687;55.738;37.516;2022-12-05T11:05:49;73.13;68.94;78.51;;
74292;Laerm;62687;55.738;37.516;2022-12-05T11:08:34;72.86;68.61;85.33;;
74292;Laerm;62687;55.738;37.516;2022-12-05T11:11:23;73.14;68.71;76.79;;
74292;Laerm;62687;55.738;37.516;2022-12-05T11:14:23;73.09;69.37;77.02;;
74292;Laerm;62687;55.738;37.516;2022-12-05T11:17:22;73.16;69.04;78.05;;
74292;Laerm;62687;55.738;37.516;2022-12-05T11:23:16;73.22;68.57;80.84;;
74292;Laerm;62687;55.738;37.516;2022-12-05T11:26:00;73.41;68.67;78.13;;
74292;Laerm;62687;55.738;37.516;2022-12-05T11:28:45;72.45;67.76;76.97;;
74292;Laerm;62687;55.738;37.516;2022-12-05T11:31:30;71.87;67.57;78.07;;
74292;Laerm;62687;55.738;37.516;2022-12-05T11:34:21;72.31;67.75;80.10;;
74292;Laerm;62687;55.738;37.516;2022-12-05T11:37:12;72.15;66.96;78.99;;
74292;Laerm;62687;55.738;37.516;2022-12-05T11:40:12;71.81;66.08;78.73;;
74292;Laerm;62687;55.738;37.516;2022-12-05T11:46:53;73.02;67.11;85.54;;
74292;Laerm;62687;55.738;37.516;2022-12-05T11:53:15;73.13;67.88;87.16;;
74292;Laerm;62687;55.738;37.516;2022-12-05T12:05:43;73.02;68.83;77.38;;
74292;Laerm;62687;55.738;37.516;2022-12-05T12:09:07;72.82;68.47;77.08;;
74292;Laerm;62687;55.738;37.516;2022-12-05T12:12:21;72.44;68.17;76.89;;
74292;Laerm;62687;55.738;37.516;2022-12-05T12:21:43;72.24;68.58;76.09;;
74292;Laerm;62687;55.738;37.516;2022-12-05T12:25:07;72.27;68.66;80.55;;
74292;Laerm;62687;55.738;37.516;2022-12-05T12:28:22;72.03;67.77;80.86;;
74292;Laerm;62687;55.738;37.516;2022-12-05T12:37:53;72.59;67.47;76.80;;
74292;Laerm;62687;55.738;37.516;2022-12-05T12:40:55;72.97;68.24;78.05;;
74292;Laerm;62687;55.738;37.516;2022-12-05T12:46:58;72.91;68.64;84.79;;
74292;Laerm;62687;55.738;37.516;2022-12-05T12:49:48;72.91;68.37;82.99;;
74292;Laerm;62687;55.738;37.516;2022-12-05T12:52:52;73.13;69.03;77.42;;
74292;Laerm;62687;55.738;37.516;2022-12-05T13:02:16;72.81;68.48;78.40;;
74292;Laerm;62687;55.738;37.516;2022-12-05T13:05:10;72.90;69.50;76.76;;
74292;Laerm;62687;55.738;37.516;2022-12-05T13:08:21;72.79;68.08;77.15;;
74292;Laerm;62687;55.738;37.516;2022-12-05T13:11:08;73.15;69.67;76.95;;
74292;Laerm;62687;55.738;37.516;2022-12-05T13:13:56;72.26;68.41;76.08;;
74292;Laerm;62687;55.738;37.516;2022-12-05T13:16:46;72.79;68.89;81.69;;
74292;Laerm;62687;55.738;37.516;2022-12-05T13:19:40;72.63;68.30;76.97;;
74292;Laerm;62687;55.738;37.516;2022-12-05T13:22:27;72.40;68.55;76.77;;
74292;Laerm;62687;55.738;37.516;2022-12-05T13:25:16;72.55;67.96;76.91;;
74292;Laerm;62687;55.738;37.516;2022-12-05T13:28:04;72.72;68.71;77.10;;
74292;Laerm;62687;55.738;37.516;2022-12-05T13:30:50;73.06;67.76;78.45;;
74292;Laerm;62687;55.738;37.516;2022-12-05T13:36:27;73.15;68.75;77.95;;
74292;Laerm;62687;55.738;37.516;2022-12-05T13:39:40;72.61;68.57;79.16;;
74292;Laerm;62687;55.738;37.516;2022-12-05T13:42:43;72.48;68.90;76.84;;
74292;Laerm;62687;55.738;37.516;2022-12-05T13:45:27;72.20;68.22;77.03;;
74292;Laerm;62687;55.738;37.516;2022-12-05T13:48:19;72.08;68.00;76.72;;
74292;Laerm;62687;55.738;37.516;2022-12-05T13:51:06;70.83;65.99;76.06;;
74292;Laerm;62687;55.738;37.516;2022-12-05T13:53:58;71.28;67.43;77.24;;
74292;Laerm;62687;55.738;37.516;2022-12-05T13:56:57;71.49;67.25;75.35;;
74292;Laerm;62687;55.738;37.516;2022-12-05T14:00:19;71.69;68.05;76.98;;
74292;Laerm;62687;55.738;37.516;2022-12-05T14:03:52;71.95;68.06;75.59;;
74292;Laerm;62687;55.738;37.516;2022-12-05T14:09:28;72.16;68.14;78.79;;
74292;Laerm;62687;55.738;37.516;2022-12-05T14:17:42;71.24;66.32;76.81;;
74292;Laerm;62687;55.738;37.516;2022-12-05T14:35:48;70.07;65.60;74.71;;
74292;Laerm;62687;55.738;37.516;2022-12-05T14:38:32;70.41;65.84;77.06;;
74292;Laerm;62687;55.738;37.516;2022-12-05T14:41:27;69.83;64.84;74.78;;
74292;Laerm;62687;55.738;37.516;2022-12-05T14:44:17;70.24;65.93;80.37;;
74292;Laerm;62687;55.738;37.516;2022-12-05T14:47:03;69.63;64.52;74.91;;
74292;Laerm;62687;55.738;37.516;2022-12-05T14:56:13;71.66;65.07;80.41;;
74292;Laerm;62687;55.738;37.516;2022-12-05T14:59:33;71.45;67.35;78.66;;
74292;Laerm;62687;55.738;37.516;2022-12-05T15:02:18;71.46;67.04;86.92;;
74292;Laerm;62687;55.738;37.516;2022-12-05T15:05:25;70.55;66.02;74.70;;
74292;Laerm;62687;55.738;37.516;2022-12-05T15:08:13;70.40;66.32;82.32;;
74292;Laerm;62687;55.738;37.516;2022-12-05T15:10:58;71.05;66.10;76.22;;
74292;Laerm;62687;55.738;37.516;2022-12-05T15:13:43;70.94;67.49;74.71;;
74292;Laerm;62687;55.738;37.516;2022-12-05T15:16:29;69.73;66.34;75.35;;
74292;Laerm;62687;55.738;37.516;2022-12-05T15:19:21;69.60;65.13;74.29;;
74292;Laerm;62687;55.738;37.516;2022-12-05T15:22:08;68.90;64.60;75.92;;
74292;Laerm;62687;55.738;37.516;2022-12-05T15:24:52;69.85;65.05;82.36;;
74292;Laerm;62687;55.738;37.516;2022-12-05T15:27:36;68.82;64.77;72.90;;
74292;Laerm;62687;55.738;37.516;2022-12-05T15:30:20;69.10;65.05;73.46;;
74292;Laerm;62687;55.738;37.516;2022-12-05T15:33:10;68.68;64.87;73.67;;
74292;Laerm;62687;55.738;37.516;2022-12-05T15:35:57;68.27;63.58;73.82;;
74292;Laerm;62687;55.738;37.516;2022-12-05T15:38:41;68.94;64.80;74.75;;
74292;Laerm;62687;55.738;37.516;2022-12-05T15:41:27;68.93;64.92;74.58;;
74292;Laerm;62687;55.738;37.516;2022-12-05T15:44:11;69.59;65.82;76.72;;
74292;Laerm;62687;55.738;37.516;2022-12-05T15:46:55;69.48;65.48;76.04;;
74292;Laerm;62687;55.738;37.516;2022-12-05T15:49:39;69.76;65.77;75.23;;
74292;Laerm;62687;55.738;37.516;2022-12-05T15:55:25;71.13;66.91;74.53;;
74292;Laerm;62687;55.738;37.516;2022-12-05T15:58:14;71.26;67.78;76.18;;
74292;Laerm;62687;55.738;37.516;2022-12-05T16:01:20;71.19;67.06;74.90;;
74292;Laerm;62687;55.738;37.516;2022-12-05T16:07:13;70.89;65.79;76.43;;
74292;Laerm;62687;55.738;37.516;2022-12-05T16:09:59;71.14;67.05;75.11;;
74292;Laerm;62687;55.738;37.516;2022-12-05T16:12:45;70.72;66.61;76.88;;
74292;Laerm;62687;55.738;37.516;2022-12-05T16:15:29;72.55;67.41;87.42;;
74292;Laerm;62687;55.738;37.516;2022-12-05T16:18:29;71.37;67.42;80.09;;
74292;Laerm;62687;55.738;37.516;2022-12-05T16:21:40;71.33;68.40;74.91;;
74292;Laerm;62687;55.738;37.516;2022-12-05T16:24:30;71.60;67.73;74.97;;
74292;Laerm;62687;55.738;37.516;2022-12-05T16:27:35;71.19;66.40;75.94;;
74292;Laerm;62687;55.738;37.516;2022-12-05T16:30:21;70.13;66.38;73.42;;
74292;Laerm;62687;55.738;37.516;2022-12-05T16:33:12;70.89;64.67;74.31;;
74292;Laerm;62687;55.738;37.516;2022-12-05T16:36:06;70.24;65.04;79.70;;
74292;Laerm;62687;55.738;37.516;2022-12-05T16:39:01;72.42;66.88;88.34;;
74292;Laerm;62687;55.738;37.516;2022-12-05T16:41:47;69.90;66.02;73.83;;
74292;Laerm;62687;55.738;37.516;2022-12-05T16:50:32;72.04;68.08;76.54;;
74292;Laerm;62687;55.738;37.516;2022-12-05T16:53:30;71.49;67.34;75.41;;
74292;Laerm;62687;55.738;37.516;2022-12-05T16:56:19;71.18;66.62;83.46;;
74292;Laerm;62687;55.738;37.516;2022-12-05T16:59:06;71.20;66.23;77.75;;
74292;Laerm;62687;55.738;37.516;2022-12-05T17:01:52;70.94;66.75;84.19;;
74292;Laerm;62687;55.738;37.516;2022-12-05T17:04:36;71.56;67.35;76.66;;
74292;Laerm;62687;55.738;37.516;2022-12-05T17:07:21;70.98;67.64;75.53;;
74292;Laerm;62687;55.738;37.516;2022-12-05T17:10:06;71.24;67.68;75.35;;
74292;Laerm;62687;55.738;37.516;2022-12-05T17:12:50;71.05;66.89;77.97;;
74292;Laerm;62687;55.738;37.516;2022-12-05T17:15:34;71.30;67.28;79.82;;
74292;Laerm;62687;55.738;37.516;2022-12-05T17:18:20;71.82;66.66;86.92;;
74292;Laerm;62687;55.738;37.516;2022-12-05T17:21:05;71.17;66.35;78.67;;
74292;Laerm;62687;55.738;37.516;2022-12-05T17:23:49;71.15;65.11;77.50;;
74292;Laerm;62687;55.738;37.516;2022-12-05T17:26:33;71.11;66.38;76.13;;
74292;Laerm;62687;55.738;37.516;2022-12-05T17:29:17;71.11;67.17;75.33;;
74292;Laerm;62687;55.738;37.516;2022-12-05T17:32:01;71.66;66.78;85.01;;
74292;Laerm;62687;55.738;37.516;2022-12-05T17:34:45;71.55;67.58;75.09;;
74292;Laerm;62687;55.738;37.516;2022-12-05T17:37:29;71.69;67.65;76.21;;
74292;Laerm;62687;55.738;37.516;2022-12-05T17:40:14;71.07;66.82;75.53;;
74292;Laerm;62687;55.738;37.516;2022-12-05T17:42:58;71.29;67.71;74.84;;
74292;Laerm;62687;55.738;37.516;2022-12-05T17:45:42;72.28;67.54;82.66;;
74292;Laerm;62687;55.738;37.516;2022-12-05T17:48:28;72.31;67.95;78.42;;
74292;Laerm;62687;55.738;37.516;2022-12-05T17:51:12;71.89;67.68;78.23;;
74292;Laerm;62687;55.738;37.516;2022-12-05T17:53:57;72.28;67.45;78.71;;
74292;Laerm;62687;55.738;37.516;2022-12-05T17:56:41;71.64;67.51;75.63;;
74292;Laerm;62687;55.738;37.516;2022-12-05T17:59:25;71.14;65.86;75.71;;
74292;Laerm;62687;55.738;37.516;2022-12-05T18:02:10;72.94;68.60;77.80;;